Time;durP1;ratioP1;P1;durP2;ratioP2;P2;SDS_P1;SDS_P2;PMS_P1;PMS_P2;Temp;Humidity;BMP_temperature;BMP_pressure;BME280_temperature;BME280_humidity;BME280_pressure;Samples;Min_cycle;Max_cycle;Signal;HPM_P1;HPM_P2
2022/01/09 00:01:08;;;;;;;15.70;13.30;;;;;;;;;;5064269;28;20043;-60
2022/01/09 00:03:34;;;;;;;16.13;12.65;;;4.10;99.90;;;;;;5064698;28;20141;-59
2022/01/09 00:06:00;;;;;;;16.23;13.30;;;4.10;99.90;;;;;;5065090;28;20068;-59
2022/01/09 00:08:26;;;;;;;15.52;12.50;;;4.20;99.90;;;;;;5063900;28;20040;-59
2022/01/09 00:10:52;;;;;;;14.88;12.60;;;;;;;;;;5063874;28;20037;-60
2022/01/09 00:13:18;;;;;;;16.70;13.65;;;4.00;99.90;;;;;;5065227;28;20072;-59
2022/01/09 00:15:44;;;;;;;16.65;13.23;;;;;;;;;;5066009;28;20133;-59
2022/01/09 00:18:10;;;;;;;16.13;12.25;;;;;;;;;;5064320;28;20405;-59
2022/01/09 00:20:36;;;;;;;17.75;12.13;;;;;;;;;;5063755;28;20032;-59
2022/01/09 00:23:03;;;;;;;16.40;12.70;;;;;;;;;;5064273;28;20566;-59
2022/01/09 00:25:29;;;;;;;16.35;13.40;;;;;;;;;;5063564;28;20067;-59
2022/01/09 00:27:56;;;;;;;16.05;13.23;;;4.10;99.90;;;;;;5063339;28;20464;-59
2022/01/09 00:30:23;;;;;;;17.00;13.52;;;4.10;99.90;;;;;;5062935;28;20489;-59
2022/01/09 00:32:51;;;;;;;16.98;14.05;;;4.10;99.90;;;;;;5063040;28;20032;-59
2022/01/09 00:35:17;;;;;;;16.67;13.95;;;;;;;;;;5063017;28;20282;-59
2022/01/09 00:37:44;;;;;;;18.58;14.52;;;;;;;;;;5063849;28;20401;-59
2022/01/09 00:40:11;;;;;;;17.75;14.73;;;3.90;99.90;;;;;;5063679;28;20448;-57
2022/01/09 00:42:37;;;;;;;18.15;14.88;;;;;;;;;;5062349;28;20599;-60
2022/01/09 00:45:05;;;;;;;16.77;13.48;;;4.00;99.90;;;;;;5064415;28;20749;-59
2022/01/09 00:47:31;;;;;;;17.30;14.85;;;;;;;;;;5064180;28;20044;-59
2022/01/09 00:49:58;;;;;;;18.38;14.43;;;;;;;;;;5063789;28;20060;-59
2022/01/09 00:52:26;;;;;;;19.25;14.98;;;4.20;99.90;;;;;;5063993;28;20047;-60
2022/01/09 00:54:52;;;;;;;21.50;16.92;;;;;;;;;;5063403;28;20035;-59
2022/01/09 00:57:18;;;;;;;19.95;15.50;;;;;;;;;;5062620;28;20131;-60
2022/01/09 00:59:44;;;;;;;22.70;16.48;;;;;;;;;;5064058;28;20036;-59
2022/01/09 01:02:10;;;;;;;19.83;16.42;;;;;;;;;;5061677;28;20036;-60
2022/01/09 01:04:38;;;;;;;18.50;15.02;;;;;;;;;;5064309;28;20493;-59
2022/01/09 01:07:04;;;;;;;19.35;15.77;;;4.00;99.90;;;;;;5063373;28;20045;-59
2022/01/09 01:09:31;;;;;;;23.42;16.83;;;;;;;;;;5064602;28;20039;-59
2022/01/09 01:12:00;;;;;;;24.10;16.70;;;4.00;99.90;;;;;;5063473;28;20032;-60
2022/01/09 01:14:29;;;;;;;20.98;16.05;;;4.00;99.90;;;;;;5062810;28;20040;-59
2022/01/09 01:16:55;;;;;;;22.00;16.27;;;;;;;;;;5063501;28;20041;-60
2022/01/09 01:19:21;;;;;;;23.67;16.30;;;;;;;;;;5063057;28;20512;-60
2022/01/09 01:21:47;;;;;;;19.95;16.10;;;;;;;;;;5063432;28;20428;-59
2022/01/09 01:24:14;;;;;;;20.70;15.98;;;;;;;;;;5063591;28;20615;-59
2022/01/09 01:26:40;;;;;;;22.90;17.42;;;;;;;;;;5061871;28;20501;-59
2022/01/09 01:29:08;;;;;;;22.98;16.75;;;4.20;99.90;;;;;;5062937;28;20039;-60
2022/01/09 01:31:34;;;;;;;21.20;16.25;;;4.10;99.90;;;;;;5063327;28;20139;-59
2022/01/09 01:34:00;;;;;;;21.30;16.38;;;;;;;;;;5062792;28;20049;-59
2022/01/09 01:36:26;;;;;;;22.23;16.95;;;;;;;;;;5062668;28;20074;-59
2022/01/09 01:38:52;;;;;;;23.33;17.10;;;;;;;;;;5062631;28;20036;-59
2022/01/09 01:41:18;;;;;;;24.08;17.38;;;;;;;;;;5062005;28;20226;-59
2022/01/09 01:43:44;;;;;;;25.50;17.60;;;4.00;99.90;;;;;;5062689;28;20048;-59
2022/01/09 01:46:11;;;;;;;24.70;17.58;;;4.00;99.90;;;;;;5062813;28;20041;-59
2022/01/09 01:48:37;;;;;;;25.98;17.05;;;;;;;;;;5061144;28;20028;-59
2022/01/09 01:51:04;;;;;;;29.30;19.00;;;3.90;99.90;;;;;;5062333;28;20402;-59
2022/01/09 01:53:30;;;;;;;27.65;18.40;;;;;;;;;;5061775;28;20115;-59
2022/01/09 01:55:57;;;;;;;26.02;17.27;;;3.90;99.90;;;;;;5062425;28;20044;-59
2022/01/09 01:58:24;;;;;;;25.48;17.90;;;4.00;99.90;;;;;;5062520;28;20036;-59
2022/01/09 02:00:52;;;;;;;23.95;17.55;;;3.90;99.90;;;;;;5061564;28;20501;-59
2022/01/09 02:03:18;;;;;;;24.27;17.73;;;4.20;99.90;;;;;;5062512;28;20762;-59
2022/01/09 02:05:45;;;;;;;27.48;17.73;;;3.90;99.90;;;;;;5061782;28;20114;-59
2022/01/09 02:08:12;;;;;;;26.13;17.35;;;4.30;99.90;;;;;;5060988;28;20061;-59
2022/01/09 02:10:48;;;;;;;25.38;16.92;;;4.00;99.90;;;;;;5060815;28;20036;-60
2022/01/09 02:13:16;;;;;;;23.80;15.63;;;;;;;;;;5062828;28;20045;-60
2022/01/09 02:15:45;;;;;;;27.13;17.50;;;4.10;99.90;;;;;;5062825;28;20524;-60
2022/01/09 02:18:13;;;;;;;22.38;15.90;;;4.20;99.90;;;;;;5063345;28;20235;-60
2022/01/09 02:20:40;;;;;;;26.88;15.07;;;4.10;99.90;;;;;;5062952;28;20079;-60
2022/01/09 02:23:08;;;;;;;20.05;14.30;;;4.20;99.90;;;;;;5061359;28;20037;-60
2022/01/09 02:25:35;;;;;;;27.85;12.80;;;4.40;99.90;;;;;;5061922;28;20082;-59
2022/01/09 02:28:02;;;;;;;24.05;13.35;;;;;;;;;;5062216;28;20608;-59
2022/01/09 02:30:29;;;;;;;29.13;13.35;;;4.40;99.90;;;;;;5062739;28;20044;-59
2022/01/09 02:32:56;;;;;;;29.23;11.10;;;4.40;99.90;;;;;;5061886;28;20370;-59
2022/01/09 02:35:23;;;;;;;26.00;10.25;;;4.50;99.90;;;;;;5061053;28;20063;-60
2022/01/09 02:37:49;;;;;;;25.05;9.85;;;;;;;;;;5062387;28;20361;-59
2022/01/09 02:40:15;;;;;;;27.48;9.95;;;;;;;;;;5062680;28;20508;-59
2022/01/09 02:42:41;;;;;;;36.67;9.32;;;;;;;;;;5060998;28;20037;-59
2022/01/09 02:45:07;;;;;;;28.48;8.63;;;4.80;99.90;;;;;;5061164;28;20045;-59
2022/01/09 02:47:36;;;;;;;27.73;6.43;;;4.80;99.90;;;;;;5061554;28;20098;-59
2022/01/09 02:52:57;;;;;;;41.17;7.93;;;5.00;99.90;;;;;;5018925;28;20053;-59
2022/01/09 02:55:25;;;;;;;43.55;6.70;;;5.00;99.90;;;;;;5016931;28;20060;-59
2022/01/09 02:57:52;;;;;;;31.40;5.72;;;4.90;99.90;;;;;;5019716;28;20453;-59
2022/01/09 03:00:21;;;;;;;38.22;5.97;;;5.10;99.90;;;;;;5018425;28;20034;-59
2022/01/09 03:02:47;;;;;;;39.22;6.85;;;5.10;99.90;;;;;;5018466;28;20053;-59
2022/01/09 03:05:13;;;;;;;36.60;7.53;;;;;;;;;;5017776;28;20087;-59
2022/01/09 03:07:40;;;;;;;52.53;7.38;;;5.60;99.90;;;;;;5019290;28;20073;-59
2022/01/09 03:10:07;;;;;;;43.88;6.07;;;5.00;99.90;;;;;;5019101;28;20046;-59
2022/01/09 03:12:33;;;;;;;37.28;7.10;;;;;;;;;;5017932;28;20167;-59
2022/01/09 03:15:01;;;;;;;58.90;8.90;;;5.30;99.90;;;;;;5017224;28;20033;-59
2022/01/09 03:17:27;;;;;;;44.97;6.80;;;;;;;;;;5019822;28;20037;-59
2022/01/09 03:19:53;;;;;;;52.00;7.60;;;5.30;99.90;;;;;;5018246;28;20064;-59
2022/01/09 03:22:19;;;;;;;48.95;6.95;;;;;;;;;;5017223;28;20541;-59
2022/01/09 03:24:45;;;;;;;57.55;7.88;;;5.40;99.90;;;;;;5017269;28;20038;-59
2022/01/09 03:27:11;;;;;;;50.55;7.10;;;5.50;99.90;;;;;;5022531;28;20581;-59
2022/01/09 03:29:39;;;;;;;49.88;6.13;;;5.60;99.90;;;;;;5036837;28;20049;-59
2022/01/09 03:32:06;;;;;;;54.45;7.28;;;5.60;99.90;;;;;;5064141;28;20041;-58
2022/01/09 03:34:33;;;;;;;60.05;9.85;;;5.60;99.90;;;;;;5063707;28;20120;-59
2022/01/09 03:37:01;;;;;;;66.38;8.77;;;5.50;99.90;;;;;;5066514;28;20114;-59
2022/01/09 03:39:28;;;;;;;57.97;7.35;;;5.60;99.90;;;;;;5065658;28;20033;-59
2022/01/09 03:41:54;;;;;;;44.03;9.50;;;5.50;99.90;;;;;;5066446;28;20040;-59
2022/01/09 03:44:21;;;;;;;47.08;6.82;;;;;;;;;;5065252;28;20037;-59
2022/01/09 03:46:48;;;;;;;54.28;7.80;;;5.60;99.90;;;;;;5066746;28;20037;-58
2022/01/09 03:49:14;;;;;;;48.15;6.28;;;5.60;99.90;;;;;;5064956;28;20049;-59
2022/01/09 03:51:43;;;;;;;52.35;6.45;;;;;;;;;;5065528;28;20062;-59
2022/01/09 03:54:13;;;;;;;44.60;5.60;;;5.50;99.90;;;;;;5066316;28;20412;-59
2022/01/09 03:56:38;;;;;;;42.97;7.55;;;5.70;99.90;;;;;;5066487;28;20520;-59
2022/01/09 03:59:04;;;;;;;39.05;6.53;;;;;;;;;;5063910;28;20048;-59
2022/01/09 04:01:30;;;;;;;43.25;5.60;;;5.60;99.90;;;;;;5065566;28;20037;-59
2022/01/09 04:03:56;;;;;;;64.18;9.40;;;;;;;;;;5064952;28;20047;-59
2022/01/09 04:06:24;;;;;;;39.83;5.78;;;5.60;99.90;;;;;;5065947;28;20129;-59
2022/01/09 04:08:52;;;;;;;32.08;5.53;;;;;;;;;;5064502;28;20539;-59
2022/01/09 04:11:27;;;;;;;39.90;5.85;;;5.60;99.90;;;;;;5064411;28;20044;-59
2022/01/09 04:13:54;;;;;;;36.78;5.47;;;5.60;99.90;;;;;;5063279;28;20068;-59
2022/01/09 04:16:20;;;;;;;36.20;5.28;;;;;;;;;;5063688;28;20101;-59
2022/01/09 04:18:46;;;;;;;48.70;6.43;;;5.70;99.90;;;;;;5064307;28;20170;-59
2022/01/09 04:21:11;;;;;;;38.53;6.60;;;5.60;99.90;;;;;;5063079;28;20119;-59
2022/01/09 04:23:39;;;;;;;34.95;5.03;;;5.60;99.90;;;;;;5064177;28;20033;-59
2022/01/09 04:26:05;;;;;;;40.92;4.85;;;;;;;;;;5063670;28;20501;-59
2022/01/09 04:28:31;;;;;;;36.72;4.25;;;5.50;99.90;;;;;;5063428;28;20032;-59
2022/01/09 04:30:56;;;;;;;27.48;5.20;;;5.60;99.90;;;;;;5062707;28;20049;-59
2022/01/09 04:33:22;;;;;;;39.40;6.35;;;5.70;99.90;;;;;;5064125;28;20033;-59
2022/01/09 04:35:48;;;;;;;35.17;4.72;;;5.50;99.90;;;;;;5064606;28;20040;-59
2022/01/09 04:38:13;;;;;;;36.17;4.18;;;5.50;99.90;;;;;;5062437;28;20052;-59
2022/01/09 04:40:39;;;;;;;38.25;5.30;;;5.70;99.90;;;;;;5063482;28;20032;-59
2022/01/09 04:43:08;;;;;;;36.72;5.03;;;5.60;99.90;;;;;;5062985;28;20072;-59
2022/01/09 04:45:34;;;;;;;27.98;4.35;;;;;;;;;;5064546;28;20044;-59
2022/01/09 04:48:03;;;;;;;35.65;5.53;;;;;;;;;;5064445;28;20400;-59
2022/01/09 04:50:32;;;;;;;38.28;5.18;;;;;;;;;;5063600;28;20063;-59
2022/01/09 04:53:04;;;;;;;29.70;4.15;;;5.50;99.90;;;;;;5064260;28;20520;-59
2022/01/09 04:55:50;;;;;;;35.15;4.93;;;5.40;99.90;;;;;;5062811;28;20516;-59
2022/01/09 04:58:17;;;;;;;38.78;4.68;;;5.40;99.90;;;;;;5063793;28;20045;-60
2022/01/09 05:00:43;;;;;;;21.25;3.65;;;5.40;99.90;;;;;;5062895;28;20089;-60
2022/01/09 05:03:10;;;;;;;35.10;4.88;;;5.60;99.90;;;;;;5063969;28;20087;-60
2022/01/09 05:05:38;;;;;;;30.42;4.25;;;5.50;99.90;;;;;;5064011;28;20041;-60
2022/01/09 05:08:04;;;;;;;27.70;4.03;;;5.50;99.90;;;;;;5063382;28;20186;-59
2022/01/09 05:10:30;;;;;;;32.17;4.35;;;5.30;99.90;;;;;;5062554;28;20662;-60
2022/01/09 05:12:56;;;;;;;25.45;3.78;;;5.50;99.90;;;;;;5063206;28;21401;-59
2022/01/09 05:15:23;;;;;;;26.13;3.50;;;5.40;99.90;;;;;;5062897;28;20115;-60
2022/01/09 05:17:52;;;;;;;31.48;4.22;;;;;;;;;;5064843;28;20041;-60
2022/01/09 05:20:18;;;;;;;27.50;4.13;;;5.40;99.90;;;;;;5062269;28;20055;-59
2022/01/09 05:22:44;;;;;;;31.55;3.63;;;5.30;99.90;;;;;;5062355;28;20040;-60
2022/01/09 05:25:11;;;;;;;38.70;4.60;;;5.40;99.90;;;;;;5062450;28;20060;-60
2022/01/09 05:27:38;;;;;;;25.33;4.38;;;;;;;;;;5061884;28;20045;-60
2022/01/09 05:30:04;;;;;;;30.63;4.38;;;5.20;99.90;;;;;;5062643;28;20080;-59
2022/01/09 05:32:33;;;;;;;30.35;4.38;;;5.20;99.90;;;;;;5061966;28;20094;-60
2022/01/09 05:34:58;;;;;;;22.45;2.95;;;5.40;99.90;;;;;;5061248;28;20089;-60
2022/01/09 05:37:24;;;;;;;27.10;4.03;;;5.30;99.90;;;;;;5063748;28;20040;-60
2022/01/09 05:39:50;;;;;;;27.45;5.30;;;5.40;99.90;;;;;;5062286;28;20067;-60
2022/01/09 05:42:15;;;;;;;26.20;4.30;;;5.20;99.90;;;;;;5061665;28;20127;-60
2022/01/09 05:44:41;;;;;;;21.23;3.33;;;;;;;;;;5062152;28;20032;-60
2022/01/09 05:47:07;;;;;;;23.67;3.05;;;;;;;;;;5063543;28;20075;-60
2022/01/09 05:49:33;;;;;;;19.30;2.78;;;5.20;99.90;;;;;;5061416;28;20803;-60
2022/01/09 05:51:59;;;;;;;20.52;3.13;;;5.30;99.90;;;;;;5063212;28;20127;-60
2022/01/09 05:54:25;;;;;;;23.45;4.70;;;;;;;;;;5062511;28;20153;-60
2022/01/09 05:56:51;;;;;;;24.80;4.25;;;5.30;99.90;;;;;;5063531;28;20127;-60
2022/01/09 05:59:18;;;;;;;26.70;3.25;;;5.20;99.90;;;;;;5061735;28;20119;-60
2022/01/09 06:01:44;;;;;;;22.25;4.05;;;;;;;;;;5062213;28;20075;-60
2022/01/09 06:04:12;;;;;;;19.20;3.47;;;5.20;99.90;;;;;;5060816;28;20131;-58
2022/01/09 06:06:38;;;;;;;26.45;3.28;;;;;;;;;;5059387;28;20461;-60
2022/01/09 06:09:04;;;;;;;21.15;2.92;;;5.20;99.90;;;;;;5062195;28;20040;-60
2022/01/09 06:11:30;;;;;;;20.38;3.22;;;5.10;99.90;;;;;;5062060;28;20055;-60
2022/01/09 06:13:55;;;;;;;21.75;3.53;;;5.10;99.90;;;;;;5063511;28;20044;-60
2022/01/09 06:16:23;;;;;;;28.20;4.57;;;5.10;99.90;;;;;;5062293;28;20036;-61
2022/01/09 06:18:48;;;;;;;18.85;3.67;;;5.20;99.90;;;;;;5061353;28;20029;-60
2022/01/09 06:21:14;;;;;;;21.77;3.80;;;5.20;99.90;;;;;;5062540;28;20596;-60
2022/01/09 06:23:40;;;;;;;23.65;3.25;;;;;;;;;;5061701;28;20500;-60
2022/01/09 06:26:06;;;;;;;29.15;3.78;;;;;;;;;;5062959;28;20037;-60
2022/01/09 06:28:32;;;;;;;22.75;3.15;;;5.00;99.90;;;;;;5062548;28;20170;-60
2022/01/09 06:30:57;;;;;;;28.17;2.95;;;5.00;99.90;;;;;;5062077;28;20326;-50
2022/01/09 06:33:24;;;;;;;23.85;3.05;;;;;;;;;;5062506;28;20036;-50
2022/01/09 06:35:50;;;;;;;22.60;3.50;;;;;;;;;;5062466;28;20033;-50
2022/01/09 06:38:16;;;;;;;22.23;2.90;;;;;;;;;;5060469;28;20043;-51
2022/01/09 06:40:43;;;;;;;26.17;3.95;;;5.00;99.90;;;;;;5060927;28;20037;-47
2022/01/09 06:43:09;;;;;;;28.85;4.18;;;;;;;;;;5061227;28;20107;-50
2022/01/09 06:45:35;;;;;;;25.08;2.80;;;5.00;99.90;;;;;;5060913;28;20146;-50
2022/01/09 06:48:03;;;;;;;26.30;4.32;;;4.90;99.90;;;;;;5059914;28;20600;-50
2022/01/09 06:50:29;;;;;;;25.27;3.10;;;;;;;;;;5059614;28;20060;-52
2022/01/09 06:52:55;;;;;;;22.80;4.00;;;5.00;99.90;;;;;;5061768;28;20232;-52
2022/01/09 06:55:20;;;;;;;25.73;3.83;;;4.90;99.90;;;;;;5062671;28;20049;-50
2022/01/09 06:57:46;;;;;;;26.27;4.30;;;4.90;99.90;;;;;;5061473;28;20036;-52
2022/01/09 07:00:17;;;;;;;20.65;3.38;;;4.90;99.90;;;;;;5060245;28;20064;-49
2022/01/09 07:02:43;;;;;;;19.75;3.25;;;4.80;99.90;;;;;;5061527;28;20071;-49
2022/01/09 07:05:09;;;;;;;21.00;3.63;;;;;;;;;;5061503;28;20094;-52
2022/01/09 07:07:37;;;;;;;21.20;2.70;;;5.00;99.90;;;;;;5061738;28;20123;-49
2022/01/09 07:10:03;;;;;;;22.40;3.63;;;4.90;99.90;;;;;;5060791;28;20523;-49
2022/01/09 07:12:29;;;;;;;26.85;3.35;;;;;;;;;;5060840;28;20459;-48
2022/01/09 07:14:56;;;;;;;25.10;3.13;;;;;;;;;;5061476;28;21868;-53
2022/01/09 07:17:22;;;;;;;23.00;3.55;;;;;;;;;;5062989;28;20056;-50
2022/01/09 07:19:48;;;;;;;20.80;3.05;;;;;;;;;;5061415;28;20043;-51
2022/01/09 07:22:13;;;;;;;20.83;3.08;;;4.80;99.90;;;;;;5061679;28;20821;-47
2022/01/09 07:24:40;;;;;;;19.67;3.88;;;;;;;;;;5061797;28;20032;-52
2022/01/09 07:27:06;;;;;;;24.65;2.75;;;;;;;;;;5060346;28;20083;-54
2022/01/09 07:29:32;;;;;;;18.60;3.10;;;4.80;99.90;;;;;;5061679;28;20028;-52
2022/01/09 07:31:59;;;;;;;18.55;2.53;;;4.60;99.90;;;;;;5062488;28;20043;-50
2022/01/09 07:34:25;;;;;;;16.80;2.50;;;;;;;;;;5061667;28;20410;-52
2022/01/09 07:36:51;;;;;;;18.77;3.67;;;;;;;;;;5061736;28;20480;-49
2022/01/09 07:39:19;;;;;;;14.60;2.17;;;4.60;99.90;;;;;;5061017;28;20560;-49
2022/01/09 07:41:47;;;;;;;20.33;2.80;;;4.70;99.90;;;;;;5059387;28;20106;-50
2022/01/09 07:44:13;;;;;;;12.73;2.38;;;4.60;99.90;;;;;;5061498;28;20063;-51
2022/01/09 07:46:39;;;;;;;14.55;2.00;;;;;;;;;;5062299;28;20033;-50
2022/01/09 07:49:05;;;;;;;18.25;2.08;;;;;;;;;;5061682;28;20055;-49
2022/01/09 07:51:31;;;;;;;17.27;3.28;;;;;;;;;;5060334;28;20048;-49
2022/01/09 07:53:57;;;;;;;17.63;2.20;;;4.50;99.90;;;;;;5061076;28;20048;-51
2022/01/09 07:56:26;;;;;;;16.15;2.45;;;4.60;99.90;;;;;;5060155;28;20567;-51
2022/01/09 07:58:51;;;;;;;20.27;3.33;;;4.60;99.90;;;;;;5060815;28;20048;-48
2022/01/09 08:01:17;;;;;;;18.10;2.03;;;4.50;99.90;;;;;;5061403;28;20382;-47
2022/01/09 08:03:43;;;;;;;15.55;2.13;;;4.40;99.90;;;;;;5060286;28;20115;-49
2022/01/09 08:06:09;;;;;;;18.52;3.42;;;;;;;;;;5060998;28;20045;-47
2022/01/09 08:08:34;;;;;;;16.00;1.90;;;4.40;99.90;;;;;;5059379;28;20041;-47
2022/01/09 08:11:01;;;;;;;11.27;1.90;;;;;;;;;;5060197;28;20161;-51
2022/01/09 08:13:27;;;;;;;9.85;1.70;;;;;;;;;;5061164;28;20037;-54
2022/01/09 08:15:53;;;;;;;15.82;2.22;;;;;;;;;;5064117;28;20083;-51
2022/01/09 08:18:23;;;;;;;11.48;1.98;;;4.50;99.90;;;;;;5065354;28;20063;-48
2022/01/09 08:20:49;;;;;;;18.80;2.80;;;;;;;;;;5063476;28;20036;-52
2022/01/09 08:23:17;;;;;;;16.60;1.98;;;;;;;;;;5063636;28;20136;-50
2022/01/09 08:25:45;;;;;;;14.65;2.40;;;4.60;99.90;;;;;;5063746;28;20086;-50
2022/01/09 08:28:11;;;;;;;14.77;2.03;;;;;;;;;;5063177;28;20984;-51
2022/01/09 08:30:37;;;;;;;10.10;1.98;;;4.60;99.90;;;;;;5062109;28;20158;-51
2022/01/09 08:33:07;;;;;;;18.95;3.03;;;4.50;99.90;;;;;;5063193;28;20496;-50
2022/01/09 08:35:32;;;;;;;15.05;2.60;;;4.60;99.90;;;;;;5061699;28;20050;-48
2022/01/09 08:37:58;;;;;;;14.85;2.28;;;;;;;;;;5062894;28;20163;-52
2022/01/09 08:40:24;;;;;;;16.50;2.47;;;;;;;;;;5063692;28;20135;-51
2022/01/09 08:42:53;;;;;;;15.20;2.15;;;4.60;99.90;;;;;;5062185;28;20134;-49
2022/01/09 08:45:20;;;;;;;18.05;3.85;;;4.60;99.90;;;;;;5063301;28;20036;-52
2022/01/09 08:47:46;;;;;;;20.63;3.63;;;4.70;99.90;;;;;;5064114;28;20049;-53
2022/01/09 08:50:14;;;;;;;15.23;2.38;;;4.60;99.90;;;;;;5062851;28;20048;-51
2022/01/09 08:52:41;;;;;;;16.45;2.58;;;;;;;;;;5062997;28;20129;-53
2022/01/09 08:55:07;;;;;;;23.50;4.25;;;4.70;99.90;;;;;;5063869;28;20059;-53
2022/01/09 08:57:34;;;;;;;19.95;3.53;;;4.70;99.90;;;;;;5062943;28;20048;-51
2022/01/09 09:00:00;;;;;;;13.07;2.38;;;4.80;99.90;;;;;;5061552;28;20730;-52
2022/01/09 09:02:26;;;;;;;23.15;2.08;;;;;;;;;;5062917;28;20125;-53
2022/01/09 09:04:52;;;;;;;15.35;2.20;;;;;;;;;;5063182;28;20051;-53
2022/01/09 09:07:23;;;;;;;20.27;2.75;;;4.90;99.90;;;;;;5064180;28;20037;-51
2022/01/09 09:09:50;;;;;;;19.60;3.38;;;4.80;99.90;;;;;;5063299;28;20647;-53
2022/01/09 09:12:17;;;;;;;21.42;3.47;;;4.80;99.90;;;;;;5062007;28;20048;-53
2022/01/09 09:14:44;;;;;;;15.90;2.58;;;;;;;;;;5063902;28;20040;-52
2022/01/09 09:17:10;;;;;;;14.57;2.42;;;;;;;;;;5064305;28;20126;-52
2022/01/09 09:19:36;;;;;;;7.95;2.05;;;;;;;;;;5064949;28;20040;-53
2022/01/09 09:22:01;;;;;;;19.60;3.42;;;5.00;99.90;;;;;;5062970;28;20059;-52
2022/01/09 09:24:28;;;;;;;7.75;1.52;;;;;;;;;;5062573;28;20465;-53
2022/01/09 09:26:54;;;;;;;9.63;1.88;;;5.00;99.90;;;;;;5064367;28;20056;-52
2022/01/09 09:29:20;;;;;;;17.42;3.20;;;5.10;99.90;;;;;;5062341;28;20028;-53
2022/01/09 09:31:46;;;;;;;11.13;1.77;;;;;;;;;;5061773;28;20045;-51
2022/01/09 09:34:12;;;;;;;12.73;2.78;;;4.90;99.90;;;;;;5062443;28;20691;-48
2022/01/09 09:36:38;;;;;;;16.27;2.08;;;5.10;99.90;;;;;;5062055;28;20060;-52
2022/01/09 09:39:05;;;;;;;9.20;1.90;;;5.00;99.90;;;;;;5062376;28;20040;-51
2022/01/09 09:41:31;;;;;;;9.35;2.05;;;5.20;99.90;;;;;;5061885;28;20043;-53
2022/01/09 09:43:57;;;;;;;23.95;4.53;;;;;;;;;;5061755;28;20044;-52
2022/01/09 09:46:24;;;;;;;13.90;2.03;;;5.20;99.90;;;;;;5060000;28;20490;-50
2022/01/09 09:48:54;;;;;;;15.70;2.10;;;5.20;99.90;;;;;;5061798;28;20043;-48
2022/01/09 09:51:24;;;;;;;15.52;2.67;;;5.10;99.90;;;;;;5061312;28;20577;-50
2022/01/09 09:53:50;;;;;;;12.93;1.75;;;5.00;99.90;;;;;;5061270;28;20105;-49
2022/01/09 09:56:16;;;;;;;17.45;3.08;;;;;;;;;;5059506;28;20147;-52
2022/01/09 09:58:42;;;;;;;9.82;1.73;;;;;;;;;;5060525;28;20075;-49
2022/01/09 10:01:25;;;;;;;13.38;2.97;;;3.90;99.90;;;;;;5062311;28;20051;-51
2022/01/09 10:03:59;;;;;;;12.25;1.65;;;5.20;99.90;;;;;;5061329;28;20131;-49
2022/01/09 10:06:57;;;;;;;14.55;2.75;;;5.20;99.90;;;;;;5061985;28;20436;-48
2022/01/09 10:09:26;;;;;;;12.82;2.22;;;5.30;99.90;;;;;;5010276;28;20436;-47
2022/01/09 10:11:52;;;;;;;11.60;1.92;;;;;;;;;;5010230;28;20053;-48
2022/01/09 10:14:22;;;;;;;11.35;2.30;;;5.40;99.90;;;;;;5012558;28;20049;-49
2022/01/09 10:17:06;;;;;;;11.25;1.95;;;5.60;99.90;;;;;;5008668;28;20478;-49
2022/01/09 10:19:47;;;;;;;15.30;1.80;;;5.60;99.90;;;;;;5001273;28;20038;-48
2022/01/09 10:22:30;;;;;;;12.05;2.05;;;5.70;99.90;;;;;;5007650;28;20394;-48
2022/01/09 10:24:57;;;;;;;13.57;1.77;;;5.90;99.90;;;;;;4998415;28;20061;-50
2022/01/09 10:27:34;;;;;;;14.68;2.25;;;5.90;99.90;;;;;;5008671;28;20600;-48
2022/01/09 10:30:02;;;;;;;12.48;1.85;;;5.80;99.90;;;;;;5013049;28;20069;-47
2022/01/09 10:32:31;;;;;;;15.27;2.28;;;5.60;99.90;;;;;;5003309;28;20283;-46
2022/01/09 10:35:10;;;;;;;8.73;1.60;;;5.50;99.90;;;;;;5002439;28;20046;-50
2022/01/09 10:37:37;;;;;;;17.63;3.67;;;5.50;99.90;;;;;;5015001;28;20056;-49
2022/01/09 10:40:05;;;;;;;14.07;2.70;;;5.30;99.90;;;;;;5006554;28;20041;-48
2022/01/09 10:42:34;;;;;;;10.35;1.77;;;5.30;99.90;;;;;;5005782;28;20159;-47
2022/01/09 10:45:22;;;;;;;14.40;2.75;;;5.30;99.90;;;;;;5030278;28;20044;-48
2022/01/09 10:47:48;;;;;;;16.67;1.85;;;5.30;99.90;;;;;;5060708;28;20036;-50
2022/01/09 10:50:28;;;;;;;8.85;1.90;;;5.40;99.90;;;;;;5060985;28;20048;-52
2022/01/09 10:53:11;;;;;;;14.25;1.75;;;5.30;99.90;;;;;;5063036;28;20040;-49
2022/01/09 10:55:37;;;;;;;14.80;1.75;;;5.40;99.90;;;;;;5061281;28;20040;-51
2022/01/09 10:58:22;;;;;;;11.80;1.90;;;5.40;99.90;;;;;;5061248;28;20089;-49
2022/01/09 11:01:05;;;;;;;14.95;2.28;;;5.40;99.90;;;;;;5061992;28;20036;-49
2022/01/09 11:03:30;;;;;;;13.68;2.90;;;5.60;99.90;;;;;;5061005;28;20082;-51
2022/01/09 11:05:57;;;;;;;13.13;2.28;;;;;;;;;;5061945;28;20041;-50
2022/01/09 11:08:23;;;;;;;16.02;1.90;;;5.60;99.90;;;;;;5061064;28;20036;-49
2022/01/09 11:10:49;;;;;;;9.85;2.17;;;5.80;99.90;;;;;;5061506;28;20106;-50
2022/01/09 11:13:16;;;;;;;19.20;1.75;;;5.70;99.90;;;;;;5059587;28;20571;-49
2022/01/09 11:16:32;;;;;;;16.30;1.63;;;;;;;;;;5060782;28;20529;-51
2022/01/09 11:18:30;;;;;;;11.15;1.70;;;6.00;99.90;;;;;;5061475;28;20436;-51
2022/01/09 11:20:56;;;;;;;14.60;3.30;;;6.20;99.90;;;;;;5061612;28;20049;-49
2022/01/09 11:23:28;;;;;;;12.70;1.80;;;6.50;99.90;;;;;;5061301;28;20043;-53
2022/01/09 11:25:58;;;;;;;20.52;2.17;;;6.60;99.90;;;;;;5061031;28;20076;-48
2022/01/09 11:28:27;;;;;;;13.43;2.17;;;6.70;99.90;;;;;;5060214;28;20505;-48
2022/01/09 11:31:23;;;;;;;15.82;2.35;;;6.70;99.90;;;;;;5060905;28;20086;-50
2022/01/09 11:34:10;;;;;;;21.08;3.20;;;6.80;99.90;;;;;;5059954;28;20045;-51
2022/01/09 11:36:43;;;;;;;12.18;2.30;;;6.90;99.90;;;;;;5061348;28;20044;-50
2022/01/09 11:39:17;;;;;;;16.80;2.78;;;6.90;99.90;;;;;;5061657;28;20070;-52
2022/01/09 11:41:44;;;;;;;12.25;2.13;;;6.90;99.90;;;;;;5060844;28;20037;-51
2022/01/09 11:44:13;;;;;;;14.02;2.10;;;7.10;99.90;;;;;;5061401;28;20051;-53
2022/01/09 11:47:02;;;;;;;13.65;1.92;;;7.20;99.90;;;;;;5061430;28;20048;-55
2022/01/09 11:49:30;;;;;;;9.77;2.58;;;7.50;99.90;;;;;;5064662;28;20052;-54
2022/01/09 11:51:59;;;;;;;13.35;2.17;;;7.20;99.90;;;;;;5064342;28;20117;-52
2022/01/09 11:54:26;;;;;;;15.52;2.70;;;7.40;99.90;;;;;;5064122;28;20168;-49
2022/01/09 11:56:56;;;;;;;10.70;1.65;;;7.20;99.90;;;;;;5065136;28;20060;-49
2022/01/09 11:59:26;;;;;;;16.77;3.13;;;7.20;99.90;;;;;;5063846;28;20071;-49
2022/01/09 12:01:56;;;;;;;10.77;1.80;;;7.10;99.90;;;;;;5065232;28;20044;-50
2022/01/09 12:04:31;;;;;;;12.23;2.38;;;7.60;99.90;;;;;;5063694;28;20072;-49
2022/01/09 12:07:03;;;;;;;15.02;2.20;;;6.90;99.90;;;;;;5062216;28;20075;-50
2022/01/09 12:09:41;;;;;;;13.88;1.85;;;7.10;99.90;;;;;;5064325;28;20044;-50
2022/01/09 12:12:12;;;;;;;12.93;1.88;;;7.20;99.90;;;;;;5064440;28;20070;-53
2022/01/09 12:17:44;;;;;;;15.55;2.88;;;7.20;99.90;;;;;;5063408;28;20055;-49
2022/01/09 12:20:13;;;;;;;9.63;1.52;;;7.10;99.90;;;;;;5021845;28;20046;-49
2022/01/09 12:23:03;;;;;;;14.43;2.10;;;7.20;99.90;;;;;;5021329;28;20037;-49
2022/01/09 12:25:35;;;;;;;13.95;2.30;;;7.00;99.90;;;;;;4943020;29;20737;-50
2022/01/09 12:28:20;;;;;;;14.85;1.95;;;6.80;99.90;;;;;;4942915;29;20436;-48
2022/01/09 12:30:48;;;;;;;9.68;1.92;;;6.50;99.90;;;;;;4942506;29;20109;-49
2022/01/09 12:33:20;;;;;;;14.07;1.80;;;6.70;99.90;;;;;;4944044;29;20472;-47
2022/01/09 12:35:55;;;;;;;7.72;2.20;;;6.70;99.90;;;;;;4942652;29;20102;-48
2022/01/09 12:38:23;;;;;;;11.18;1.88;;;6.50;99.90;;;;;;4943878;29;20558;-50
2022/01/09 12:41:08;;;;;;;12.32;2.20;;;6.50;99.90;;;;;;4943893;29;20524;-49
2022/01/09 12:43:36;;;;;;;12.40;2.10;;;6.70;99.90;;;;;;4942082;29;20099;-52
2022/01/09 12:46:13;;;;;;;11.07;1.63;;;6.70;99.90;;;;;;4943738;29;20039;-50
2022/01/09 12:48:40;;;;;;;11.88;1.67;;;6.70;99.90;;;;;;4942188;29;20410;-49
2022/01/09 12:51:13;;;;;;;12.57;1.60;;;6.70;99.90;;;;;;4959575;28;20181;-51
2022/01/09 12:53:46;;;;;;;15.45;3.08;;;6.60;99.90;;;;;;4942157;29;20051;-50
2022/01/09 12:56:23;;;;;;;11.10;1.60;;;6.70;99.90;;;;;;4962190;28;20064;-52
2022/01/09 12:59:00;;;;;;;8.20;1.42;;;6.50;99.90;;;;;;5001737;28;20539;-52
2022/01/09 13:01:31;;;;;;;14.02;2.97;;;6.70;99.90;;;;;;5006886;28;20181;-52
2022/01/09 13:03:59;;;;;;;13.75;2.22;;;6.40;99.90;;;;;;5063740;28;20044;-52
2022/01/09 13:06:34;;;;;;;13.27;1.70;;;6.30;99.90;;;;;;5061306;28;20090;-51
2022/01/09 13:09:04;;;;;;;7.65;1.40;;;6.30;99.90;;;;;;5063661;28;20040;-49
2022/01/09 13:11:31;;;;;;;10.05;2.47;;;6.30;99.90;;;;;;5062691;28;20166;-51
2022/01/09 13:13:59;;;;;;;13.95;1.60;;;6.10;99.90;;;;;;5063389;28;20147;-48
2022/01/09 13:16:31;;;;;;;12.15;1.38;;;6.10;99.90;;;;;;5062985;28;20045;-53
2022/01/09 13:18:58;;;;;;;10.25;1.20;;;5.90;99.90;;;;;;5061571;28;20453;-50
2022/01/09 13:21:31;;;;;;;13.35;1.85;;;6.10;99.90;;;;;;5062847;28;20046;-53
2022/01/09 13:24:35;;;;;;;7.00;1.15;;;6.10;99.90;;;;;;5061449;28;20062;-52